sensor_id;sensor_type;location;lat;lon;timestamp;temperature;humidity
5258;DHT22;2651;51.594;9.928;2022-12-20T00:01:05;5.60;99.90
5258;DHT22;2651;51.594;9.928;2022-12-20T00:02:07;5.60;99.90
5258;DHT22;2651;51.594;9.928;2022-12-20T00:03:09;5.60;99.90
5258;DHT22;2651;51.594;9.928;2022-12-20T00:04:11;5.60;99.90
5258;DHT22;2651;51.594;9.928;2022-12-20T00:05:13;5.60;99.90
5258;DHT22;2651;51.594;9.928;2022-12-20T00:06:16;5.60;99.90
5258;DHT22;2651;51.594;9.928;2022-12-20T00:07:18;5.60;99.90
5258;DHT22;2651;51.594;9.928;2022-12-20T00:08:20;5.60;99.90
5258;DHT22;2651;51.594;9.928;2022-12-20T00:09:22;5.60;99.90
5258;DHT22;2651;51.594;9.928;2022-12-20T00:10:26;5.60;99.90
5258;DHT22;2651;51.594;9.928;2022-12-20T00:11:28;5.70;99.90
5258;DHT22;2651;51.594;9.928;2022-12-20T00:12:30;5.70;99.90
5258;DHT22;2651;51.594;9.928;2022-12-20T00:13:32;5.70;99.90
5258;DHT22;2651;51.594;9.928;2022-12-20T00:14:34;5.70;99.90
5258;DHT22;2651;51.594;9.928;2022-12-20T00:15:35;5.60;99.90
5258;DHT22;2651;51.594;9.928;2022-12-20T00:16:38;5.60;99.90
5258;DHT22;2651;51.594;9.928;2022-12-20T00:17:39;5.60;99.90
5258;DHT22;2651;51.594;9.928;2022-12-20T00:18:42;5.70;99.90
5258;DHT22;2651;51.594;9.928;2022-12-20T00:19:45;5.70;99.90
5258;DHT22;2651;51.594;9.928;2022-12-20T00:20:47;5.70;99.90
5258;DHT22;2651;51.594;9.928;2022-12-20T00:21:48;5.80;99.90
5258;DHT22;2651;51.594;9.928;2022-12-20T00:22:50;5.80;99.90
5258;DHT22;2651;51.594;9.928;2022-12-20T00:23:53;5.80;99.90
5258;DHT22;2651;51.594;9.928;2022-12-20T00:24:54;5.80;99.90
5258;DHT22;2651;51.594;9.928;2022-12-20T00:26:03;5.80;99.90
5258;DHT22;2651;51.594;9.928;2022-12-20T00:27:05;5.80;99.90
5258;DHT22;2651;51.594;9.928;2022-12-20T00:28:07;5.80;99.90
5258;DHT22;2651;51.594;9.928;2022-12-20T00:29:09;5.80;99.90
5258;DHT22;2651;51.594;9.928;2022-12-20T00:30:11;5.80;99.90
5258;DHT22;2651;51.594;9.928;2022-12-20T00:31:15;5.80;99.90
5258;DHT22;2651;51.594;9.928;2022-12-20T00:32:17;5.90;99.90
5258;DHT22;2651;51.594;9.928;2022-12-20T00:33:19;6.00;99.90
5258;DHT22;2651;51.594;9.928;2022-12-20T00:34:21;5.90;99.90
5258;DHT22;2651;51.594;9.928;2022-12-20T00:35:22;5.90;99.90
5258;DHT22;2651;51.594;9.928;2022-12-20T00:36:26;6.00;99.90
5258;DHT22;2651;51.594;9.928;2022-12-20T00:37:28;6.00;99.90
5258;DHT22;2651;51.594;9.928;2022-12-20T00:38:29;6.00;99.90
5258;DHT22;2651;51.594;9.928;2022-12-20T00:39:31;6.00;99.90
5258;DHT22;2651;51.594;9.928;2022-12-20T00:40:33;6.10;99.90
5258;DHT22;2651;51.594;9.928;2022-12-20T00:41:34;6.10;99.90
5258;DHT22;2651;51.594;9.928;2022-12-20T00:42:36;6.10;99.90
5258;DHT22;2651;51.594;9.928;2022-12-20T00:43:39;6.10;99.90
5258;DHT22;2651;51.594;9.928;2022-12-20T00:44:40;6.10;99.90
5258;DHT22;2651;51.594;9.928;2022-12-20T00:45:42;6.10;99.90
5258;DHT22;2651;51.594;9.928;2022-12-20T00:46:44;6.10;99.90
5258;DHT22;2651;51.594;9.928;2022-12-20T00:47:45;6.10;99.90
5258;DHT22;2651;51.594;9.928;2022-12-20T00:48:47;6.10;99.90
5258;DHT22;2651;51.594;9.928;2022-12-20T00:49:49;6.10;99.90
5258;DHT22;2651;51.594;9.928;2022-12-20T00:50:50;6.10;99.90
5258;DHT22;2651;51.594;9.928;2022-12-20T00:51:52;6.10;99.90
5258;DHT22;2651;51.594;9.928;2022-12-20T00:52:54;6.10;99.90
5258;DHT22;2651;51.594;9.928;2022-12-20T00:53:55;6.20;99.90
5258;DHT22;2651;51.594;9.928;2022-12-20T00:54:57;6.20;99.90
5258;DHT22;2651;51.594;9.928;2022-12-20T00:55:59;6.10;99.90
5258;DHT22;2651;51.594;9.928;2022-12-20T00:57:00;6.20;99.90
5258;DHT22;2651;51.594;9.928;2022-12-20T00:58:02;6.20;99.90
5258;DHT22;2651;51.594;9.928;2022-12-20T00:59:04;6.20;99.90
5258;DHT22;2651;51.594;9.928;2022-12-20T01:00:06;6.20;99.90
5258;DHT22;2651;51.594;9.928;2022-12-20T01:01:29;6.20;99.90
5258;DHT22;2651;51.594;9.928;2022-12-20T01:02:31;6.20;99.90
5258;DHT22;2651;51.594;9.928;2022-12-20T01:03:33;6.20;99.90
5258;DHT22;2651;51.594;9.928;2022-12-20T01:04:35;6.20;99.90
5258;DHT22;2651;51.594;9.928;2022-12-20T01:05:37;6.20;99.90
5258;DHT22;2651;51.594;9.928;2022-12-20T01:06:39;6.20;99.90
5258;DHT22;2651;51.594;9.928;2022-12-20T01:07:41;6.20;99.90
5258;DHT22;2651;51.594;9.928;2022-12-20T01:08:43;6.20;99.90
5258;DHT22;2651;51.594;9.928;2022-12-20T01:09:45;6.20;99.90
5258;DHT22;2651;51.594;9.928;2022-12-20T01:10:56;6.20;99.90
5258;DHT22;2651;51.594;9.928;2022-12-20T01:11:58;6.20;99.90
5258;DHT22;2651;51.594;9.928;2022-12-20T01:13:00;6.20;99.90
5258;DHT22;2651;51.594;9.928;2022-12-20T01:14:10;6.20;99.90
5258;DHT22;2651;51.594;9.928;2022-12-20T01:15:12;6.20;99.90
5258;DHT22;2651;51.594;9.928;2022-12-20T01:16:29;6.10;99.90
5258;DHT22;2651;51.594;9.928;2022-12-20T01:17:30;6.10;99.90
5258;DHT22;2651;51.594;9.928;2022-12-20T01:18:32;6.10;99.90
5258;DHT22;2651;51.594;9.928;2022-12-20T01:19:34;6.10;99.90
5258;DHT22;2651;51.594;9.928;2022-12-20T01:20:35;6.10;99.90
5258;DHT22;2651;51.594;9.928;2022-12-20T01:21:37;6.10;99.90
5258;DHT22;2651;51.594;9.928;2022-12-20T01:22:44;6.10;99.90
5258;DHT22;2651;51.594;9.928;2022-12-20T01:23:48;6.00;99.90
5258;DHT22;2651;51.594;9.928;2022-12-20T01:24:50;6.00;99.90
5258;DHT22;2651;51.594;9.928;2022-12-20T01:25:52;6.00;99.90
5258;DHT22;2651;51.594;9.928;2022-12-20T01:26:53;5.90;99.90
5258;DHT22;2651;51.594;9.928;2022-12-20T01:27:55;5.90;99.90
5258;DHT22;2651;51.594;9.928;2022-12-20T01:28:58;5.80;99.90
5258;DHT22;2651;51.594;9.928;2022-12-20T01:30:00;5.80;99.90
5258;DHT22;2651;51.594;9.928;2022-12-20T01:31:05;5.70;99.90
5258;DHT22;2651;51.594;9.928;2022-12-20T01:32:07;5.70;99.90
5258;DHT22;2651;51.594;9.928;2022-12-20T01:33:09;5.60;99.90
5258;DHT22;2651;51.594;9.928;2022-12-20T01:34:11;5.60;99.90
5258;DHT22;2651;51.594;9.928;2022-12-20T01:35:12;5.60;99.90
5258;DHT22;2651;51.594;9.928;2022-12-20T01:36:17;5.60;99.90
5258;DHT22;2651;51.594;9.928;2022-12-20T01:37:19;5.60;99.90
5258;DHT22;2651;51.594;9.928;2022-12-20T01:38:21;5.60;99.90
5258;DHT22;2651;51.594;9.928;2022-12-20T01:39:23;5.60;99.90
5258;DHT22;2651;51.594;9.928;2022-12-20T01:40:24;5.60;99.90
5258;DHT22;2651;51.594;9.928;2022-12-20T01:41:28;5.60;99.90
5258;DHT22;2651;51.594;9.928;2022-12-20T01:42:30;5.60;99.90
5258;DHT22;2651;51.594;9.928;2022-12-20T01:44:54;5.50;99.90
5258;DHT22;2651;51.594;9.928;2022-12-20T01:45:56;5.50;99.90
5258;DHT22;2651;51.594;9.928;2022-12-20T01:46:58;5.70;99.90
5258;DHT22;2651;51.594;9.928;2022-12-20T01:48:00;5.70;99.90
5258;DHT22;2651;51.594;9.928;2022-12-20T01:50:04;5.80;99.90
5258;DHT22;2651;51.594;9.928;2022-12-20T01:51:06;5.80;99.90
5258;DHT22;2651;51.594;9.928;2022-12-20T01:52:12;5.90;99.90
5258;DHT22;2651;51.594;9.928;2022-12-20T01:53:17;5.90;99.90
5258;DHT22;2651;51.594;9.928;2022-12-20T01:54:26;6.10;99.90
5258;DHT22;2651;51.594;9.928;2022-12-20T01:55:29;6.10;99.90
5258;DHT22;2651;51.594;9.928;2022-12-20T01:56:32;6.10;99.90
5258;DHT22;2651;51.594;9.928;2022-12-20T01:58:01;6.20;99.90
5258;DHT22;2651;51.594;9.928;2022-12-20T01:59:05;6.20;99.90
5258;DHT22;2651;51.594;9.928;2022-12-20T02:00:07;6.30;99.90
5258;DHT22;2651;51.594;9.928;2022-12-20T02:01:10;6.30;99.90
5258;DHT22;2651;51.594;9.928;2022-12-20T02:02:12;6.40;99.90
5258;DHT22;2651;51.594;9.928;2022-12-20T02:03:15;6.40;99.90
5258;DHT22;2651;51.594;9.928;2022-12-20T02:04:17;6.50;99.90
5258;DHT22;2651;51.594;9.928;2022-12-20T02:05:21;6.50;99.90
5258;DHT22;2651;51.594;9.928;2022-12-20T02:06:25;6.50;99.90
5258;DHT22;2651;51.594;9.928;2022-12-20T02:07:29;6.60;99.90
5258;DHT22;2651;51.594;9.928;2022-12-20T02:08:31;6.60;99.90
5258;DHT22;2651;51.594;9.928;2022-12-20T02:09:34;6.50;99.90
5258;DHT22;2651;51.594;9.928;2022-12-20T02:12:11;6.50;99.90
5258;DHT22;2651;51.594;9.928;2022-12-20T02:15:55;6.50;99.90
5258;DHT22;2651;51.594;9.928;2022-12-20T02:18:43;6.60;99.90
5258;DHT22;2651;51.594;9.928;2022-12-20T02:19:55;6.60;99.90
5258;DHT22;2651;51.594;9.928;2022-12-20T02:21:13;6.60;99.90
5258;DHT22;2651;51.594;9.928;2022-12-20T02:39:30;6.60;99.90
5258;DHT22;2651;51.594;9.928;2022-12-20T02:40:39;6.60;99.90
5258;DHT22;2651;51.594;9.928;2022-12-20T02:41:46;6.60;99.90
5258;DHT22;2651;51.594;9.928;2022-12-20T02:42:52;6.60;99.90
5258;DHT22;2651;51.594;9.928;2022-12-20T02:44:01;6.60;99.90
5258;DHT22;2651;51.594;9.928;2022-12-20T02:45:25;6.50;99.90
5258;DHT22;2651;51.594;9.928;2022-12-20T02:46:28;6.50;99.90
5258;DHT22;2651;51.594;9.928;2022-12-20T02:48:02;6.50;99.90
5258;DHT22;2651;51.594;9.928;2022-12-20T02:49:06;6.60;99.90
5258;DHT22;2651;51.594;9.928;2022-12-20T02:50:10;6.60;99.90
5258;DHT22;2651;51.594;9.928;2022-12-20T02:51:13;6.60;99.90
5258;DHT22;2651;51.594;9.928;2022-12-20T02:52:17;6.60;99.90
5258;DHT22;2651;51.594;9.928;2022-12-20T02:53:21;6.60;99.90
5258;DHT22;2651;51.594;9.928;2022-12-20T02:54:23;6.60;99.90
5258;DHT22;2651;51.594;9.928;2022-12-20T02:55:47;6.60;99.90
5258;DHT22;2651;51.594;9.928;2022-12-20T02:56:56;6.60;99.90
5258;DHT22;2651;51.594;9.928;2022-12-20T02:58:05;6.60;99.90
5258;DHT22;2651;51.594;9.928;2022-12-20T02:59:15;6.60;99.90
5258;DHT22;2651;51.594;9.928;2022-12-20T03:00:20;6.60;99.90
5258;DHT22;2651;51.594;9.928;2022-12-20T03:01:35;6.60;99.90
5258;DHT22;2651;51.594;9.928;2022-12-20T03:02:39;6.70;99.90
5258;DHT22;2651;51.594;9.928;2022-12-20T03:04:00;6.70;99.90
5258;DHT22;2651;51.594;9.928;2022-12-20T03:05:03;6.60;99.90
5258;DHT22;2651;51.594;9.928;2022-12-20T03:06:06;6.60;99.90
5258;DHT22;2651;51.594;9.928;2022-12-20T03:07:11;6.70;99.90
5258;DHT22;2651;51.594;9.928;2022-12-20T03:08:13;6.70;99.90
5258;DHT22;2651;51.594;9.928;2022-12-20T03:09:15;6.70;99.90
5258;DHT22;2651;51.594;9.928;2022-12-20T03:10:17;6.70;99.90
5258;DHT22;2651;51.594;9.928;2022-12-20T03:11:19;6.70;99.90
5258;DHT22;2651;51.594;9.928;2022-12-20T03:12:21;6.70;99.90
5258;DHT22;2651;51.594;9.928;2022-12-20T03:13:23;6.70;99.90
5258;DHT22;2651;51.594;9.928;2022-12-20T03:14:26;6.60;99.90
5258;DHT22;2651;51.594;9.928;2022-12-20T03:15:27;6.60;99.90
5258;DHT22;2651;51.594;9.928;2022-12-20T03:16:29;6.60;99.90
5258;DHT22;2651;51.594;9.928;2022-12-20T03:17:31;6.60;99.90
5258;DHT22;2651;51.594;9.928;2022-12-20T03:18:33;6.60;99.90
5258;DHT22;2651;51.594;9.928;2022-12-20T03:19:34;6.70;99.90
5258;DHT22;2651;51.594;9.928;2022-12-20T03:20:36;6.70;99.90
5258;DHT22;2651;51.594;9.928;2022-12-20T03:21:38;6.70;99.90
5258;DHT22;2651;51.594;9.928;2022-12-20T03:22:39;6.70;99.90
5258;DHT22;2651;51.594;9.928;2022-12-20T03:23:41;6.70;99.90
5258;DHT22;2651;51.594;9.928;2022-12-20T03:24:42;6.70;99.90
5258;DHT22;2651;51.594;9.928;2022-12-20T03:25:44;6.70;99.90
5258;DHT22;2651;51.594;9.928;2022-12-20T03:26:46;6.70;99.90
5258;DHT22;2651;51.594;9.928;2022-12-20T03:27:47;6.70;99.90
5258;DHT22;2651;51.594;9.928;2022-12-20T03:28:49;6.70;99.90
5258;DHT22;2651;51.594;9.928;2022-12-20T03:29:51;6.70;99.90
5258;DHT22;2651;51.594;9.928;2022-12-20T03:30:52;6.70;99.90
5258;DHT22;2651;51.594;9.928;2022-12-20T03:31:54;6.60;99.90
5258;DHT22;2651;51.594;9.928;2022-12-20T03:32:56;6.70;99.90
5258;DHT22;2651;51.594;9.928;2022-12-20T03:33:57;6.70;99.90
5258;DHT22;2651;51.594;9.928;2022-12-20T03:34:59;6.70;99.90
5258;DHT22;2651;51.594;9.928;2022-12-20T03:36:01;6.70;99.90
5258;DHT22;2651;51.594;9.928;2022-12-20T03:37:02;6.70;99.90
5258;DHT22;2651;51.594;9.928;2022-12-20T03:38:05;6.60;99.90
5258;DHT22;2651;51.594;9.928;2022-12-20T03:39:07;6.60;99.90
5258;DHT22;2651;51.594;9.928;2022-12-20T03:40:09;6.50;99.90
5258;DHT22;2651;51.594;9.928;2022-12-20T03:41:11;6.50;99.90
5258;DHT22;2651;51.594;9.928;2022-12-20T03:42:13;6.50;99.90
5258;DHT22;2651;51.594;9.928;2022-12-20T03:43:14;6.50;99.90
5258;DHT22;2651;51.594;9.928;2022-12-20T03:44:16;6.50;99.90
5258;DHT22;2651;51.594;9.928;2022-12-20T03:45:18;6.50;99.90
5258;DHT22;2651;51.594;9.928;2022-12-20T03:46:20;6.50;99.90
5258;DHT22;2651;51.594;9.928;2022-12-20T03:47:21;6.50;99.90
5258;DHT22;2651;51.594;9.928;2022-12-20T03:48:23;6.50;99.90
5258;DHT22;2651;51.594;9.928;2022-12-20T03:49:25;6.50;99.90
5258;DHT22;2651;51.594;9.928;2022-12-20T03:50:27;6.60;99.90
5258;DHT22;2651;51.594;9.928;2022-12-20T03:51:29;6.50;99.90
5258;DHT22;2651;51.594;9.928;2022-12-20T03:52:31;6.60;99.90
5258;DHT22;2651;51.594;9.928;2022-12-20T03:53:32;6.60;99.90
5258;DHT22;2651;51.594;9.928;2022-12-20T03:54:34;6.50;99.90
5258;DHT22;2651;51.594;9.928;2022-12-20T03:55:36;6.50;99.90
5258;DHT22;2651;51.594;9.928;2022-12-20T03:56:38;6.50;99.90
5258;DHT22;2651;51.594;9.928;2022-12-20T03:57:39;6.60;99.90
5258;DHT22;2651;51.594;9.928;2022-12-20T03:58:42;6.60;99.90
5258;DHT22;2651;51.594;9.928;2022-12-20T03:59:44;6.60;99.90
5258;DHT22;2651;51.594;9.928;2022-12-20T04:00:45;6.60;99.90
5258;DHT22;2651;51.594;9.928;2022-12-20T04:01:48;6.60;99.90
5258;DHT22;2651;51.594;9.928;2022-12-20T04:02:49;6.60;99.90
5258;DHT22;2651;51.594;9.928;2022-12-20T04:03:52;6.60;99.90
5258;DHT22;2651;51.594;9.928;2022-12-20T04:04:54;6.60;99.90
5258;DHT22;2651;51.594;9.928;2022-12-20T04:05:55;6.60;99.90
5258;DHT22;2651;51.594;9.928;2022-12-20T04:06:57;6.60;99.90
5258;DHT22;2651;51.594;9.928;2022-12-20T04:07:59;6.60;99.90
5258;DHT22;2651;51.594;9.928;2022-12-20T04:09:00;6.60;99.90
5258;DHT22;2651;51.594;9.928;2022-12-20T04:10:03;6.70;99.90
5258;DHT22;2651;51.594;9.928;2022-12-20T04:11:04;6.70;99.90
5258;DHT22;2651;51.594;9.928;2022-12-20T04:12:18;6.70;99.90
5258;DHT22;2651;51.594;9.928;2022-12-20T04:13:20;6.70;99.90
5258;DHT22;2651;51.594;9.928;2022-12-20T04:14:22;6.70;99.90
5258;DHT22;2651;51.594;9.928;2022-12-20T04:15:23;6.70;99.90
5258;DHT22;2651;51.594;9.928;2022-12-20T04:16:28;6.60;99.90
5258;DHT22;2651;51.594;9.928;2022-12-20T04:17:30;6.60;99.90
5258;DHT22;2651;51.594;9.928;2022-12-20T04:18:32;6.60;99.90
5258;DHT22;2651;51.594;9.928;2022-12-20T04:19:33;6.60;99.90
5258;DHT22;2651;51.594;9.928;2022-12-20T04:20:35;6.60;99.90
5258;DHT22;2651;51.594;9.928;2022-12-20T04:21:37;6.60;99.90
5258;DHT22;2651;51.594;9.928;2022-12-20T04:22:39;6.60;99.90
5258;DHT22;2651;51.594;9.928;2022-12-20T04:23:41;6.50;99.90
5258;DHT22;2651;51.594;9.928;2022-12-20T04:24:43;6.50;99.90
5258;DHT22;2651;51.594;9.928;2022-12-20T04:25:45;6.50;99.90
5258;DHT22;2651;51.594;9.928;2022-12-20T04:26:46;6.50;99.90
5258;DHT22;2651;51.594;9.928;2022-12-20T04:27:49;6.60;99.90
5258;DHT22;2651;51.594;9.928;2022-12-20T04:28:51;6.60;99.90
5258;DHT22;2651;51.594;9.928;2022-12-20T04:29:52;6.70;99.90
5258;DHT22;2651;51.594;9.928;2022-12-20T04:30:55;6.70;99.90
5258;DHT22;2651;51.594;9.928;2022-12-20T04:31:56;6.70;99.90
5258;DHT22;2651;51.594;9.928;2022-12-20T04:32:58;6.80;99.90
5258;DHT22;2651;51.594;9.928;2022-12-20T04:34:00;6.80;99.90
5258;DHT22;2651;51.594;9.928;2022-12-20T04:35:02;6.80;99.90
5258;DHT22;2651;51.594;9.928;2022-12-20T04:36:05;6.70;99.90
5258;DHT22;2651;51.594;9.928;2022-12-20T04:37:07;6.70;99.90
5258;DHT22;2651;51.594;9.928;2022-12-20T04:38:08;6.70;99.90
5258;DHT22;2651;51.594;9.928;2022-12-20T04:39:10;6.60;99.90
5258;DHT22;2651;51.594;9.928;2022-12-20T04:40:12;6.60;99.90
5258;DHT22;2651;51.594;9.928;2022-12-20T04:41:14;6.70;99.90
5258;DHT22;2651;51.594;9.928;2022-12-20T04:42:24;6.70;99.90
5258;DHT22;2651;51.594;9.928;2022-12-20T04:43:26;6.70;99.90
5258;DHT22;2651;51.594;9.928;2022-12-20T04:44:28;6.60;99.90
5258;DHT22;2651;51.594;9.928;2022-12-20T04:45:29;6.60;99.90
5258;DHT22;2651;51.594;9.928;2022-12-20T04:46:31;6.60;99.90
5258;DHT22;2651;51.594;9.928;2022-12-20T04:47:33;6.70;99.90
5258;DHT22;2651;51.594;9.928;2022-12-20T04:48:35;6.70;99.90
5258;DHT22;2651;51.594;9.928;2022-12-20T04:49:57;6.60;99.90
5258;DHT22;2651;51.594;9.928;2022-12-20T04:50:58;6.60;99.90
5258;DHT22;2651;51.594;9.928;2022-12-20T04:52:00;6.60;99.90
5258;DHT22;2651;51.594;9.928;2022-12-20T04:53:22;6.60;99.90
5258;DHT22;2651;51.594;9.928;2022-12-20T04:54:42;6.70;99.90
5258;DHT22;2651;51.594;9.928;2022-12-20T04:55:44;6.70;99.90
5258;DHT22;2651;51.594;9.928;2022-12-20T04:56:46;6.70;99.90
5258;DHT22;2651;51.594;9.928;2022-12-20T04:57:47;6.70;99.90
5258;DHT22;2651;51.594;9.928;2022-12-20T04:58:51;6.70;99.90
5258;DHT22;2651;51.594;9.928;2022-12-20T04:59:53;6.80;99.90
5258;DHT22;2651;51.594;9.928;2022-12-20T05:00:55;6.70;99.90
5258;DHT22;2651;51.594;9.928;2022-12-20T05:01:56;6.80;99.90
5258;DHT22;2651;51.594;9.928;2022-12-20T05:02:59;6.80;99.90
5258;DHT22;2651;51.594;9.928;2022-12-20T05:04:01;6.80;99.90
5258;DHT22;2651;51.594;9.928;2022-12-20T05:05:03;6.80;99.90
5258;DHT22;2651;51.594;9.928;2022-12-20T05:06:05;6.80;99.90
5258;DHT22;2651;51.594;9.928;2022-12-20T05:07:07;6.80;99.90
5258;DHT22;2651;51.594;9.928;2022-12-20T05:08:09;6.80;99.90
5258;DHT22;2651;51.594;9.928;2022-12-20T05:09:10;6.80;99.90
5258;DHT22;2651;51.594;9.928;2022-12-20T05:10:12;6.90;99.90
5258;DHT22;2651;51.594;9.928;2022-12-20T05:11:14;6.80;99.90
5258;DHT22;2651;51.594;9.928;2022-12-20T05:12:15;6.90;99.90
5258;DHT22;2651;51.594;9.928;2022-12-20T05:13:17;6.80;99.90
5258;DHT22;2651;51.594;9.928;2022-12-20T05:14:19;6.80;99.90
5258;DHT22;2651;51.594;9.928;2022-12-20T05:15:20;6.70;99.90
5258;DHT22;2651;51.594;9.928;2022-12-20T05:16:22;6.70;99.90
5258;DHT22;2651;51.594;9.928;2022-12-20T05:17:26;6.70;99.90
5258;DHT22;2651;51.594;9.928;2022-12-20T05:18:28;6.70;99.90
5258;DHT22;2651;51.594;9.928;2022-12-20T05:19:29;6.60;99.90
5258;DHT22;2651;51.594;9.928;2022-12-20T05:20:31;6.60;99.90
5258;DHT22;2651;51.594;9.928;2022-12-20T05:21:33;6.60;99.90
5258;DHT22;2651;51.594;9.928;2022-12-20T05:22:53;6.60;99.90
5258;DHT22;2651;51.594;9.928;2022-12-20T05:24:13;6.60;99.90
5258;DHT22;2651;51.594;9.928;2022-12-20T05:25:38;6.60;99.90
5258;DHT22;2651;51.594;9.928;2022-12-20T05:26:59;6.60;99.90
5258;DHT22;2651;51.594;9.928;2022-12-20T05:28:01;6.60;99.90
5258;DHT22;2651;51.594;9.928;2022-12-20T05:29:04;6.50;99.90
5258;DHT22;2651;51.594;9.928;2022-12-20T05:30:06;6.50;99.90
5258;DHT22;2651;51.594;9.928;2022-12-20T05:31:08;6.60;99.90
5258;DHT22;2651;51.594;9.928;2022-12-20T05:32:10;6.60;99.90
5258;DHT22;2651;51.594;9.928;2022-12-20T05:33:12;6.60;99.90
5258;DHT22;2651;51.594;9.928;2022-12-20T05:34:13;6.60;99.90
5258;DHT22;2651;51.594;9.928;2022-12-20T05:35:15;6.50;99.90
5258;DHT22;2651;51.594;9.928;2022-12-20T05:36:17;6.50;99.90
5258;DHT22;2651;51.594;9.928;2022-12-20T05:37:18;6.50;99.90
5258;DHT22;2651;51.594;9.928;2022-12-20T05:38:21;6.50;99.90
5258;DHT22;2651;51.594;9.928;2022-12-20T05:39:23;6.50;99.90
5258;DHT22;2651;51.594;9.928;2022-12-20T05:40:25;6.60;99.90
5258;DHT22;2651;51.594;9.928;2022-12-20T05:41:26;6.50;99.90
5258;DHT22;2651;51.594;9.928;2022-12-20T05:42:28;6.50;99.90
5258;DHT22;2651;51.594;9.928;2022-12-20T05:43:30;6.50;99.90
5258;DHT22;2651;51.594;9.928;2022-12-20T05:44:31;6.50;99.90
5258;DHT22;2651;51.594;9.928;2022-12-20T05:45:33;6.50;99.90
5258;DHT22;2651;51.594;9.928;2022-12-20T05:46:35;6.50;99.90
5258;DHT22;2651;51.594;9.928;2022-12-20T05:47:38;6.50;99.90
5258;DHT22;2651;51.594;9.928;2022-12-20T05:48:39;6.50;99.90
5258;DHT22;2651;51.594;9.928;2022-12-20T05:49:41;6.50;99.90
5258;DHT22;2651;51.594;9.928;2022-12-20T05:50:44;6.50;99.90
5258;DHT22;2651;51.594;9.928;2022-12-20T05:51:46;6.50;99.90
5258;DHT22;2651;51.594;9.928;2022-12-20T05:52:47;6.50;99.90
5258;DHT22;2651;51.594;9.928;2022-12-20T05:53:49;6.50;99.90
5258;DHT22;2651;51.594;9.928;2022-12-20T05:54:51;6.50;99.90
5258;DHT22;2651;51.594;9.928;2022-12-20T05:55:52;6.50;99.90
5258;DHT22;2651;51.594;9.928;2022-12-20T05:56:55;6.50;99.90
5258;DHT22;2651;51.594;9.928;2022-12-20T05:57:56;6.50;99.90
5258;DHT22;2651;51.594;9.928;2022-12-20T05:58:58;6.50;99.90
5258;DHT22;2651;51.594;9.928;2022-12-20T06:00:01;6.50;99.90
5258;DHT22;2651;51.594;9.928;2022-12-20T06:01:04;6.50;99.90
5258;DHT22;2651;51.594;9.928;2022-12-20T06:02:06;6.50;99.90
5258;DHT22;2651;51.594;9.928;2022-12-20T06:03:09;6.50;99.90
5258;DHT22;2651;51.594;9.928;2022-12-20T06:04:12;6.50;99.90
5258;DHT22;2651;51.594;9.928;2022-12-20T06:05:14;6.50;99.90
5258;DHT22;2651;51.594;9.928;2022-12-20T06:06:16;6.50;99.90
5258;DHT22;2651;51.594;9.928;2022-12-20T06:07:17;6.50;99.90
5258;DHT22;2651;51.594;9.928;2022-12-20T06:08:20;6.50;99.90
5258;DHT22;2651;51.594;9.928;2022-12-20T06:09:24;6.50;99.90
5258;DHT22;2651;51.594;9.928;2022-12-20T06:10:25;6.50;99.90
5258;DHT22;2651;51.594;9.928;2022-12-20T06:11:27;6.50;99.90
5258;DHT22;2651;51.594;9.928;2022-12-20T06:12:31;6.50;99.90
5258;DHT22;2651;51.594;9.928;2022-12-20T06:13:32;6.50;99.90
5258;DHT22;2651;51.594;9.928;2022-12-20T06:14:34;6.50;99.90
5258;DHT22;2651;51.594;9.928;2022-12-20T06:15:36;6.40;99.90
5258;DHT22;2651;51.594;9.928;2022-12-20T06:16:38;6.40;99.90
5258;DHT22;2651;51.594;9.928;2022-12-20T06:17:40;6.50;99.90
5258;DHT22;2651;51.594;9.928;2022-12-20T06:18:42;6.50;99.90
5258;DHT22;2651;51.594;9.928;2022-12-20T06:19:44;6.50;99.90
5258;DHT22;2651;51.594;9.928;2022-12-20T06:20:50;6.50;99.90
5258;DHT22;2651;51.594;9.928;2022-12-20T06:21:52;6.60;99.90
5258;DHT22;2651;51.594;9.928;2022-12-20T06:22:54;6.60;99.90
5258;DHT22;2651;51.594;9.928;2022-12-20T06:23:56;6.60;99.90
5258;DHT22;2651;51.594;9.928;2022-12-20T06:24:57;6.60;99.90
5258;DHT22;2651;51.594;9.928;2022-12-20T06:25:59;6.60;99.90
5258;DHT22;2651;51.594;9.928;2022-12-20T06:27:02;6.60;99.90
5258;DHT22;2651;51.594;9.928;2022-12-20T06:28:03;6.60;99.90
5258;DHT22;2651;51.594;9.928;2022-12-20T06:29:06;6.60;99.90
5258;DHT22;2651;51.594;9.928;2022-12-20T06:30:10;6.60;99.90
5258;DHT22;2651;51.594;9.928;2022-12-20T06:31:12;6.60;99.90
5258;DHT22;2651;51.594;9.928;2022-12-20T06:32:13;6.70;99.90
5258;DHT22;2651;51.594;9.928;2022-12-20T06:33:15;6.60;99.90
5258;DHT22;2651;51.594;9.928;2022-12-20T06:34:17;6.70;99.90
5258;DHT22;2651;51.594;9.928;2022-12-20T06:35:19;6.70;99.90
5258;DHT22;2651;51.594;9.928;2022-12-20T06:36:20;6.60;99.90
5258;DHT22;2651;51.594;9.928;2022-12-20T06:37:22;6.60;99.90
5258;DHT22;2651;51.594;9.928;2022-12-20T06:38:24;6.60;99.90
5258;DHT22;2651;51.594;9.928;2022-12-20T06:39:25;6.50;99.90
5258;DHT22;2651;51.594;9.928;2022-12-20T06:40:27;6.60;99.90
5258;DHT22;2651;51.594;9.928;2022-12-20T06:41:29;6.50;99.90
5258;DHT22;2651;51.594;9.928;2022-12-20T06:42:30;6.50;99.90
5258;DHT22;2651;51.594;9.928;2022-12-20T06:43:32;6.40;99.90
5258;DHT22;2651;51.594;9.928;2022-12-20T06:44:33;6.40;99.90
5258;DHT22;2651;51.594;9.928;2022-12-20T06:45:35;6.40;99.90
5258;DHT22;2651;51.594;9.928;2022-12-20T06:46:42;6.40;99.90
5258;DHT22;2651;51.594;9.928;2022-12-20T06:47:44;6.30;99.90
5258;DHT22;2651;51.594;9.928;2022-12-20T06:48:46;6.40;99.90
5258;DHT22;2651;51.594;9.928;2022-12-20T06:49:47;6.40;99.90
5258;DHT22;2651;51.594;9.928;2022-12-20T06:50:49;6.40;99.90
5258;DHT22;2651;51.594;9.928;2022-12-20T06:51:56;6.40;99.90
5258;DHT22;2651;51.594;9.928;2022-12-20T06:52:58;6.40;99.90
5258;DHT22;2651;51.594;9.928;2022-12-20T06:54:00;6.50;99.90
5258;DHT22;2651;51.594;9.928;2022-12-20T06:55:02;6.60;99.90
5258;DHT22;2651;51.594;9.928;2022-12-20T06:56:04;6.60;99.90
5258;DHT22;2651;51.594;9.928;2022-12-20T06:57:05;6.70;99.90
5258;DHT22;2651;51.594;9.928;2022-12-20T06:58:07;6.70;99.90
5258;DHT22;2651;51.594;9.928;2022-12-20T06:59:09;6.70;99.90
5258;DHT22;2651;51.594;9.928;2022-12-20T07:00:11;6.80;99.90
5258;DHT22;2651;51.594;9.928;2022-12-20T07:01:13;6.80;99.90
5258;DHT22;2651;51.594;9.928;2022-12-20T07:02:15;6.80;99.90
5258;DHT22;2651;51.594;9.928;2022-12-20T07:03:17;6.80;99.90
5258;DHT22;2651;51.594;9.928;2022-12-20T07:04:19;6.80;99.90
5258;DHT22;2651;51.594;9.928;2022-12-20T07:05:21;6.80;99.90
5258;DHT22;2651;51.594;9.928;2022-12-20T07:06:22;6.70;99.90
5258;DHT22;2651;51.594;9.928;2022-12-20T07:07:24;6.80;99.90
5258;DHT22;2651;51.594;9.928;2022-12-20T07:08:26;6.80;99.90
5258;DHT22;2651;51.594;9.928;2022-12-20T07:09:28;6.80;99.90
5258;DHT22;2651;51.594;9.928;2022-12-20T07:10:32;6.90;99.90
5258;DHT22;2651;51.594;9.928;2022-12-20T07:11:34;6.90;99.90
5258;DHT22;2651;51.594;9.928;2022-12-20T07:12:35;6.90;99.90
5258;DHT22;2651;51.594;9.928;2022-12-20T07:13:42;6.90;99.90
5258;DHT22;2651;51.594;9.928;2022-12-20T07:14:45;6.90;99.90
5258;DHT22;2651;51.594;9.928;2022-12-20T07:15:46;7.00;99.90
5258;DHT22;2651;51.594;9.928;2022-12-20T07:16:48;7.00;99.90
5258;DHT22;2651;51.594;9.928;2022-12-20T07:17:50;7.10;99.90
5258;DHT22;2651;51.594;9.928;2022-12-20T07:18:52;7.10;99.90
5258;DHT22;2651;51.594;9.928;2022-12-20T07:19:54;7.20;99.90
5258;DHT22;2651;51.594;9.928;2022-12-20T07:21:04;7.20;99.90
5258;DHT22;2651;51.594;9.928;2022-12-20T07:22:06;7.20;99.90
5258;DHT22;2651;51.594;9.928;2022-12-20T07:23:07;7.20;99.90
5258;DHT22;2651;51.594;9.928;2022-12-20T07:24:09;7.10;99.90
5258;DHT22;2651;51.594;9.928;2022-12-20T07:25:11;7.20;99.90